Aeroporto :
LOGIN :

Iscrizione | Disclaimer

   EN    FR    IT 

 










Sommario :    VFR   VFR Marginale   IFR   IFR Intensivo   IFR Molto Intensivo
Visibilità : 
Base nubi : 
>= 8 km
>= 3000ft
5 / 8 km
1000 / 3000 ft
1500m / 5 km
500 / 1000 ft
800 / 1500m
200 / 500 ft
< 800m
< 200 ft
Simboli :   Temporali  Nebbia  Neve Forte  Precipitazioni Forti  Vento > 20 kt
SIGMETs :   Varie  Temporali  Ghiacco  Turbolenza  Onda orograficha  Ceneri Vulcaniche







- Altitudine del aeroporto : 245 ft
- Codice IATA : BIQ
- Carte del aeroporto


LFBZ - Biarritz

ULTIMO METAR :
  • 190230Z AUTO 10004KT 040V160 6000 FEW003 07/07 Q1007 TEMPO 0300 FG VV///

METARs OBSOLETI :
  • 190200Z AUTO 11004KT 8000 NSC 07/07 Q1007 NOSIG
  • 190130Z AUTO 08007KT CAVOK 08/08 Q1007 NOSIG
  • 190100Z AUTO 07007KT CAVOK 08/08 Q1007 NOSIG
  • 190030Z AUTO 09004KT 6000 FEW006 SCT160 08/07 Q1007 NOSIG
  • 190000Z AUTO 09006KT CAVOK 09/08 Q1007 NOSIG

TAF AMD TAF LFBZ
Valido dal 19 a 02 ore il 20 a 00 ore UTC


190220Z 1902/1924 09008KT 7000 NSC
BECMG 1903/1905 3000 BR OVC002
TEMPO 1904/1909 0300 FG VV///
BECMG 1910/1912 CAVOK
BECMG 1916/1918 VRB03KT
BECMG 1919/1921 OVC020
Nessun NOTAM noto per questo aeroporto.
1 SIGMET conosciuto per la FIR Bordeaux (LFBB) :
 
Turbolenza severa
LFBB SIGMET 7 VALID 190000/190400 LFPW
LFBB BORDEAUX FIR/UIR SEV TURB FCST WI N4400 W00145 - N4530 W00145 - N4430 E00200 - N4300 E00145 - N4400 W00145 FL180/350 MOV S 10KT NC=



MetMap, La meteo Aeronautica in un colpo d'occhio ! - Copyright ORBIFLY Dicembre 2007 - Disclaimer

ORBIFLY MET'MAP TEAM :

Programmazione e sviluppo : Alexandra Zaïnal
Concezione e sviluppo : Baudouin d'Aumeries
Co-Programmazione e sviluppo : Marc-Olivier Méhu
Supporto tecnico e logistico : Manuel Goepfert
Aiuto per la traduzione : Arnaldo La Scala

Contatto : metmap@orbifly.com




FONTI E CREDITI :

   NOAA